Time;durP1;ratioP1;P1;durP2;ratioP2;P2;SDS_P1;SDS_P2;PMS_P1;PMS_P2;Temp;Humidity;BMP_temperature;BMP_pressure;BME280_temperature;BME280_humidity;BME280_pressure;Samples;Min_cycle;Max_cycle;Signal;HPM_P1;HPM_P2
2024/01/25 00:02:20;;;;;;;48.75;9.43;;;;;;;8.94;100.00;102060.97;6287170;22;20027;-83
2024/01/25 00:15:38;;;;;;;43.35;9.25;;;;;;;9.02;100.00;102062.16;5999772;23;20083;-86
2024/01/25 00:18:29;;;;;;;42.45;9.13;;;;;;;8.94;100.00;102068.78;6021616;23;20087;-84
2024/01/25 00:21:31;;;;;;;50.20;10.27;;;;;;;9.06;100.00;102076.66;6165860;23;20021;-85
2024/01/25 00:30:01;;;;;;;62.05;9.82;;;;;;;8.92;100.00;102060.25;6228898;23;20388;-84
2024/01/25 00:32:31;;;;;;;50.75;9.88;;;;;;;8.94;100.00;102065.34;6254511;23;20067;-85
2024/01/25 00:35:37;;;;;;;50.90;10.10;;;;;;;8.88;100.00;102057.97;6254097;23;20012;-84
2024/01/25 00:38:39;;;;;;;54.15;10.52;;;;;;;8.83;100.00;102050.44;6131770;23;20021;-85
2024/01/25 00:41:53;;;;;;;47.63;10.35;;;;;;;8.96;100.00;102058.25;6253900;23;20060;-84
2024/01/25 00:44:39;;;;;;;52.95;10.50;;;;;;;8.89;100.00;102050.03;6243420;23;20031;-86
2024/01/25 00:47:21;;;;;;;64.22;9.70;;;;;;;8.82;100.00;102051.41;6254491;23;20074;-85
2024/01/25 00:50:32;;;;;;;41.08;8.52;;;;;;;8.84;100.00;102070.41;6256557;23;20047;-84
2024/01/25 01:02:02;;;;;;;49.53;9.52;;;;;;;8.55;100.00;102082.03;6241864;23;20024;-84
2024/01/25 01:15:09;;;;;;;50.17;8.80;;;;;;;8.23;100.00;102074.66;6043908;23;20380;-84
2024/01/25 01:17:36;;;;;;;49.20;10.55;;;;;;;8.05;100.00;102082.91;6093248;23;20029;-84
2024/01/25 01:20:13;;;;;;;49.67;10.60;;;;;;;8.14;100.00;102098.75;6160829;23;20018;-82
2024/01/25 01:26:48;;;;;;;;;;;;;;;;;;;;;
2024/01/25 01:30:04;;;;;;;52.00;11.50;;;;;;;8.07;100.00;102107.09;6039925;23;20033;-83
2024/01/25 02:21:45;;;;;;;50.08;10.95;;;;;;;8.01;100.00;102144.88;6252904;23;20027;-85
2024/01/25 02:24:30;;;;;;;45.65;10.32;;;;;;;7.90;100.00;102131.69;6252703;23;20022;-84
2024/01/25 02:27:04;;;;;;;50.70;9.60;;;;;;;7.89;100.00;102148.28;6252462;23;20400;-83
2024/01/25 02:29:31;;;;;;;55.20;10.57;;;;;;;7.86;100.00;102156.28;6254551;23;20047;-86
2024/01/25 02:49:15;;;;;;;49.53;9.32;;;;;;;7.82;100.00;102178.28;6090614;23;20029;-86
2024/01/25 02:51:48;;;;;;;53.53;9.32;;;;;;;7.80;100.00;102174.94;6205381;23;20068;-81
2024/01/25 04:32:25;;;;;;;;;;;;;;;;;;;;;
2024/01/25 04:35:19;;;;;;;56.10;11.00;;;;;;;6.61;100.00;102221.50;6282358;22;20305;-84
2024/01/25 04:45:51;;;;;;;52.80;11.85;;;;;;;6.59;100.00;102238.97;6285437;22;20029;-84
2024/01/25 04:48:52;;;;;;;58.03;12.10;;;;;;;6.50;100.00;102223.91;6254266;23;20035;-83
2024/01/25 04:51:25;;;;;;;57.22;12.13;;;;;;;6.46;100.00;102230.19;6255071;23;20032;-84
2024/01/25 04:57:06;;;;;;;68.30;12.43;;;;;;;6.32;100.00;102234.44;6162131;23;20482;-84
2024/01/25 05:03:21;;;;;;;55.70;15.75;;;;;;;6.22;100.00;102215.09;6221444;23;20023;-85
2024/01/25 05:46:35;;;;;;;;;;;;;;;;;;;;;
2024/01/25 06:12:37;;;;;;;79.10;16.60;;;;;;;5.69;100.00;102246.69;6188088;22;20325;-85
2024/01/25 06:15:14;;;;;;;63.47;13.25;;;;;;;5.61;100.00;102238.50;6282953;22;20027;-85
2024/01/25 06:51:42;;;;;;;60.47;10.88;;;;;;;5.37;100.00;102266.63;6273967;22;20034;-82
2024/01/25 06:54:11;;;;;;;57.22;12.65;;;;;;;5.36;100.00;102285.72;6285180;22;20015;-85
2024/01/25 06:56:43;;;;;;;55.90;12.52;;;;;;;5.31;100.00;102272.16;6285417;22;20024;-82
2024/01/25 06:59:10;;;;;;;66.70;12.35;;;;;;;5.20;100.00;102270.13;6284262;22;20026;-82
2024/01/25 07:01:40;;;;;;;57.00;12.00;;;;;;;5.25;100.00;102256.91;6284001;22;20020;-82
2024/01/25 07:04:08;;;;;;;61.53;11.88;;;;;;;5.42;100.00;102288.00;6282086;22;20072;-83
2024/01/25 07:06:35;;;;;;;60.58;11.88;;;;;;;5.20;100.00;102261.53;6283574;22;20020;-83
2024/01/25 07:09:03;;;;;;;58.50;12.85;;;;;;;5.15;100.00;102255.75;6284216;22;20105;-84
2024/01/25 07:11:30;;;;;;;61.55;11.60;;;;;;;5.32;100.00;102295.44;6284811;22;20023;-83
2024/01/25 07:14:04;;;;;;;58.70;11.05;;;;;;;5.31;100.00;102304.16;6284171;22;20011;-84
2024/01/25 07:16:31;;;;;;;59.00;11.80;;;;;;;5.20;100.00;102298.66;6284073;22;20019;-82
2024/01/25 07:19:29;;;;;;;63.47;11.70;;;;;;;5.29;100.00;102315.53;6282957;22;20028;-79
2024/01/25 07:22:22;;;;;;;60.35;10.80;;;;;;;5.17;100.00;102296.28;6283763;22;20041;-82
2024/01/25 07:25:10;;;;;;;56.45;11.35;;;;;;;4.98;100.00;102280.81;6252602;23;20028;-80
2024/01/25 07:27:57;;;;;;;57.80;10.45;;;;;;;4.98;100.00;102290.34;6226663;23;20113;-81
2024/01/25 07:30:33;;;;;;;53.85;12.80;;;;;;;5.08;100.00;102307.13;6253392;23;20023;-80
2024/01/25 07:33:00;;;;;;;56.42;11.43;;;;;;;5.11;100.00;102306.13;6248202;23;20016;-80
2024/01/25 07:35:28;;;;;;;58.13;12.65;;;;;;;5.02;100.00;102285.84;6249873;23;20016;-80
2024/01/25 07:38:03;;;;;;;52.00;12.93;;;;;;;5.12;100.00;102308.66;6184220;23;20040;-78
2024/01/25 07:40:30;;;;;;;62.33;13.70;;;;;;;5.22;100.00;102320.19;6189662;23;20595;-80
2024/01/25 07:42:57;;;;;;;71.10;14.30;;;;;;;5.17;100.00;102311.00;6188282;23;20025;-79
2024/01/25 07:45:26;;;;;;;50.83;13.45;;;;;;;5.32;100.00;102318.78;6188765;23;20017;-80
2024/01/25 07:47:53;;;;;;;70.07;14.38;;;;;;;5.36;100.00;102316.88;6187627;23;20021;-79
2024/01/25 07:50:29;;;;;;;77.82;15.85;;;;;;;5.41;100.00;102327.88;6189347;23;20028;-81
2024/01/25 07:53:00;;;;;;;72.53;16.17;;;;;;;5.33;100.00;102302.31;6190437;23;20029;-80
2024/01/25 07:55:30;;;;;;;70.80;16.27;;;;;;;5.36;100.00;102284.91;6195603;23;20051;-79
2024/01/25 07:57:57;;;;;;;74.05;17.00;;;;;;;5.59;100.00;102316.50;6198354;23;20025;-80
2024/01/25 08:00:45;;;;;;;67.65;15.52;;;;;;;5.85;100.00;102322.88;6192483;23;20100;-80
2024/01/25 08:03:35;;;;;;;81.43;18.10;;;;;;;6.11;100.00;102333.63;6190552;23;20068;-80
2024/01/25 08:06:19;;;;;;;76.30;18.25;;;;;;;6.13;100.00;102323.97;6191993;23;20016;-79
2024/01/25 08:09:06;;;;;;;83.35;18.85;;;;;;;6.33;100.00;102340.09;6182753;23;20056;-80
2024/01/25 08:11:47;;;;;;;67.10;18.17;;;;;;;6.44;100.00;102343.88;6192708;23;20024;-80
2024/01/25 08:14:18;;;;;;;74.93;17.73;;;;;;;6.33;100.00;102316.72;6192394;23;20021;-82
2024/01/25 08:16:52;;;;;;;80.20;20.98;;;;;;;6.64;100.00;102340.94;6192681;23;20076;-79
2024/01/25 08:19:19;;;;;;;81.07;25.80;;;;;;;6.76;100.00;102340.22;6191450;23;20025;-79
2024/01/25 08:21:46;;;;;;;85.60;26.35;;;;;;;6.89;100.00;102355.97;6191679;23;20426;-79
2024/01/25 08:24:29;;;;;;;72.60;22.33;;;;;;;6.97;100.00;102349.38;6194048;23;20095;-79
2024/01/25 08:27:03;;;;;;;72.72;18.98;;;;;;;6.92;100.00;102306.34;6194869;23;20053;-79
2024/01/25 08:29:29;;;;;;;82.30;19.10;;;;;;;7.16;100.00;102330.88;6194056;23;20039;-79
2024/01/25 08:31:58;;;;;;;76.93;17.63;;;;;;;7.08;100.00;102298.47;6193099;23;20025;-80
2024/01/25 08:34:25;;;;;;;67.03;18.20;;;;;;;7.35;100.00;102307.19;6194229;23;20064;-79
2024/01/25 08:36:52;;;;;;;62.10;16.88;;;;;;;7.11;100.00;102298.25;6195919;23;20065;-79
2024/01/25 08:39:20;;;;;;;60.95;17.10;;;;;;;7.27;100.00;102325.03;6196956;23;20469;-80
2024/01/25 08:41:50;;;;;;;77.85;17.95;;;;;;;7.21;100.00;102315.00;6195048;23;20077;-79
2024/01/25 08:44:16;;;;;;;65.68;16.30;;;;;;;7.18;100.00;102308.19;6193379;23;20085;-80
2024/01/25 08:46:46;;;;;;;70.63;18.05;;;;;;;7.35;100.00;102311.56;6192676;23;20079;-79
2024/01/25 08:49:12;;;;;;;63.47;17.42;;;;;;;7.30;100.00;102304.03;6191982;23;20025;-81
2024/01/25 08:51:44;;;;;;;64.28;16.73;;;;;;;7.35;100.00;102306.34;6192480;23;20048;-79
2024/01/25 08:54:31;;;;;;;64.40;16.83;;;;;;;7.31;100.00;102301.31;6191676;23;20029;-79
2024/01/25 08:57:23;;;;;;;60.30;16.92;;;;;;;7.48;100.00;102297.69;6191223;23;20024;-80
2024/01/25 09:00:08;;;;;;;69.55;16.75;;;;;;;7.44;100.00;102285.78;6190540;23;20025;-78
2024/01/25 09:02:42;;;;;;;68.70;16.45;;;;;;;7.38;100.00;102296.56;6191821;23;20056;-79
2024/01/25 09:05:09;;;;;;;56.65;16.95;;;;;;;7.35;100.00;102296.75;6192670;23;20484;-79
2024/01/25 09:07:39;;;;;;;60.47;17.08;;;;;;;7.51;100.00;102299.25;6192568;23;20020;-80
2024/01/25 09:10:51;;;;;;;79.43;19.00;;;;;;;7.41;100.00;102277.31;6192802;23;20029;-80
2024/01/25 09:13:25;;;;;;;59.83;18.48;;;;;;;7.61;100.00;102280.34;6194928;23;20079;-80
2024/01/25 09:15:58;;;;;;;66.47;18.25;;;;;;;7.36;100.00;102251.56;6193449;23;20013;-79
2024/01/25 09:21:56;;;;;;;64.32;17.27;;;;;;;7.57;100.00;102271.03;6195695;23;20047;-80
2024/01/25 09:27:26;;;;;;;65.30;18.45;;;;;;;7.59;100.00;102295.22;6194547;23;20116;-79
2024/01/25 09:30:28;;;;;;;;;;;;;;;;;;;;;
2024/01/25 09:33:08;;;;;;;58.10;17.88;;;;;;;7.65;100.00;102284.41;6195215;23;20017;-80
2024/01/25 09:36:08;;;;;;;62.38;17.60;;;;;;;7.64;100.00;102272.31;6195340;23;20029;-80
2024/01/25 09:38:44;;;;;;;70.63;18.65;;;;;;;7.77;100.00;102285.41;6193732;23;20465;-80
2024/01/25 09:41:12;;;;;;;61.63;17.38;;;;;;;7.77;100.00;102289.78;6194795;23;20024;-79
2024/01/25 09:44:08;;;;;;;59.95;17.63;;;;;;;8.22;100.00;102333.75;6195110;23;20028;-80
2024/01/25 09:46:44;;;;;;;60.75;17.42;;;;;;;8.26;100.00;102332.63;6196442;23;20651;-80
2024/01/25 09:52:15;;;;;;;65.68;18.50;;;;;;;8.28;100.00;102333.38;6192410;23;20035;-80
2024/01/25 09:57:44;;;;;;;59.85;17.45;;;;;;;8.01;100.00;102335.16;6190712;23;20021;-79
2024/01/25 10:00:33;;;;;;;50.58;17.15;;;;;;;8.02;100.00;102336.00;6195394;23;20048;-79
2024/01/25 10:06:29;;;;;;;54.78;19.23;;;;;;;8.07;100.00;102342.56;5984616;24;20028;-78
2024/01/25 10:09:26;;;;;;;61.28;19.05;;;;;;;8.18;100.00;102336.66;6187549;23;20017;-79
2024/01/25 10:15:04;;;;;;;60.25;19.58;;;;;;;8.34;100.00;102332.16;6192262;23;20049;-80
2024/01/25 10:17:34;;;;;;;59.50;19.30;;;;;;;8.33;100.00;102291.38;6195794;23;20322;-80
2024/01/25 10:20:26;;;;;;;62.88;18.38;;;;;;;8.49;100.00;102279.00;6194763;23;20021;-79
2024/01/25 10:22:58;;;;;;;62.00;18.13;;;;;;;8.51;100.00;102304.94;6195155;23;20021;-80
2024/01/25 10:28:25;;;;;;;52.35;18.40;;;;;;;8.77;100.00;102287.56;6164331;23;20029;-79
2024/01/25 10:31:48;;;;;;;58.53;17.02;;;;;;;8.64;100.00;102284.94;6195784;23;20025;-80
2024/01/25 10:37:40;;;;;;;;;;;;;;;;;;;;;
2024/01/25 10:40:23;;;;;;;56.53;16.98;;;;;;;8.96;99.80;102307.09;6195280;23;20017;-80
2024/01/25 10:45:55;;;;;;;62.17;18.20;;;;;;;9.21;98.47;102287.13;6190213;23;19916;-80
2024/01/25 10:52:19;;;;;;;52.03;15.77;;;;;;;9.19;97.37;102247.22;6191496;23;20181;-79
2024/01/25 10:58:21;;;;;;;53.65;16.15;;;;;;;9.20;97.03;102267.16;6191248;23;20471;-77
2024/01/25 11:17:39;;;;;;;54.45;16.67;;;;;;;9.62;93.50;102227.53;6095470;23;20058;-80
2024/01/25 11:27:36;;;;;;;;;;;;;;;;;;;;;
2024/01/25 11:33:34;;;;;;;55.20;16.27;;;;;;;10.22;91.75;102225.78;6099620;23;20022;-79
2024/01/25 12:09:32;;;;;;;49.00;13.27;;;;;;;10.39;85.31;102149.47;5875288;23;20047;-79
2024/01/25 12:12:31;;;;;;;34.58;11.45;;;;;;;10.90;85.44;102165.50;6078635;23;20027;-80
2024/01/25 12:21:07;;;;;;;37.88;11.15;;;;;;;10.93;84.14;102156.56;6036513;23;20023;-79
2024/01/25 12:26:42;;;;;;;;;;;;;;;10.87;83.00;102123.03;6024427;23;20019;-79
2024/01/25 12:29:17;;;;;;;38.53;10.68;;;;;;;11.15;82.72;102122.47;6076200;23;20083;-79
2024/01/25 12:31:52;;;;;;;37.08;10.27;;;;;;;10.94;81.94;102093.59;6162682;23;20025;-79
2024/01/25 12:34:41;;;;;;;41.63;12.07;;;;;;;11.20;81.76;102122.09;6162782;23;20489;-80
2024/01/25 12:40:40;;;;;;;40.40;11.82;;;;;;;11.20;81.58;102090.66;6158409;23;20026;-80
2024/01/25 12:44:03;;;;;;;;;;;;;;;;;;;;;
2024/01/25 12:55:04;;;;;;;37.25;11.60;;;;;;;11.39;81.40;102110.94;6159390;23;20021;-84
2024/01/25 12:57:39;;;;;;;36.58;10.52;;;;;;;11.44;80.65;102087.81;6195957;23;20025;-82
2024/01/25 13:00:53;;;;;;;;;;;;;;;;;;;;;
2024/01/25 13:03:39;;;;;;;;;;;;;;;11.78;80.05;102089.34;6191475;23;20481;-82
2024/01/25 13:06:18;;;;;;;;;;;;;;;;;;;;;
2024/01/25 13:09:06;;;;;;;34.53;8.80;;;;;;;11.76;79.19;102069.44;6196441;23;20064;-84
2024/01/25 13:11:35;;;;;;;31.52;8.93;;;;;;;11.63;79.13;102059.97;6195363;23;20104;-82
2024/01/25 13:14:13;;;;;;;29.65;8.38;;;;;;;11.68;79.30;102061.38;6195572;23;20034;-83
2024/01/25 13:26:22;;;;;;;35.13;10.75;;;;;;;11.49;81.40;102073.38;6164366;23;20044;-83
2024/01/25 13:31:57;;;;;;;36.65;8.88;;;;;;;11.43;80.36;102047.66;6193081;23;20032;-83
2024/01/25 13:35:11;;;;;;;36.60;10.32;;;;;;;11.46;80.21;102030.84;6196395;23;20052;-83
2024/01/25 13:38:16;;;;;;;39.60;9.68;;;;;;;11.21;80.45;102039.94;6198147;23;20044;-84
2024/01/25 13:47:22;;;;;;;35.22;9.45;;;;;;;11.38;81.60;102039.34;6069818;23;20086;-83
2024/01/25 13:52:59;;;;;;;32.08;9.20;;;;;;;11.36;80.65;102016.84;6192152;23;20021;-85
2024/01/25 13:55:43;;;;;;;24.95;8.73;;;;;;;11.48;80.00;102024.53;6189513;23;20483;-84
2024/01/25 13:58:36;;;;;;;39.00;8.40;;;;;;;11.50;79.80;102012.13;6194072;23;20373;-83
2024/01/25 14:01:31;;;;;;;33.25;8.57;;;;;;;11.53;79.48;102004.00;6191721;23;20031;-84
2024/01/25 14:04:12;;;;;;;32.00;10.32;;;;;;;11.55;79.75;102009.97;6074548;23;20166;-84
2024/01/25 14:09:47;;;;;;;33.13;9.00;;;;;;;11.51;79.29;102008.53;6175731;23;20247;-84
2024/01/25 14:12:43;;;;;;;26.92;8.68;;;;;;;11.33;79.56;101999.63;6153253;23;20406;-83
2024/01/25 14:15:33;;;;;;;37.72;9.10;;;;;;;11.45;79.14;102005.59;6186109;23;20194;-83
2024/01/25 14:18:32;;;;;;;27.20;7.78;;;;;;;11.53;79.14;101987.44;6175184;23;20052;-83
2024/01/25 14:24:47;;;;;;;31.20;8.55;;;;;;;11.62;78.41;102000.63;6194217;23;20053;-84
2024/01/25 14:27:34;;;;;;;27.05;8.38;;;;;;;11.47;78.55;101996.66;6194559;23;20926;-83
2024/01/25 14:30:45;;;;;;;28.20;7.53;;;;;;;11.66;78.50;101984.63;6130820;23;20495;-83
2024/01/25 14:33:48;;;;;;;27.70;8.13;;;;;;;11.51;78.94;101982.34;6065427;23;20373;-83
2024/01/25 14:36:45;;;;;;;29.47;8.13;;;;;;;11.53;79.17;101982.22;6066216;23;20540;-83
2024/01/25 14:39:55;;;;;;;34.92;8.90;;;;;;;11.22;78.72;101974.31;6193539;23;20021;-83
2024/01/25 14:46:32;;;;;;;28.38;8.20;;;;;;;10.92;80.05;101992.53;6070013;23;20023;-82
2024/01/25 14:49:09;;;;;;;31.90;8.32;;;;;;;10.61;81.72;101992.41;6188821;23;20465;-83
2024/01/25 14:51:43;;;;;;;31.95;9.00;;;;;;;10.55;82.02;101989.44;6188839;23;20032;-82
2024/01/25 14:54:17;;;;;;;28.75;8.40;;;;;;;10.62;82.22;101977.53;6188113;23;20021;-83
2024/01/25 14:56:56;;;;;;;30.75;8.93;;;;;;;10.74;82.90;101971.31;6194326;23;20071;-83
2024/01/25 14:59:33;;;;;;;28.75;8.57;;;;;;;10.75;83.20;101962.50;6193941;23;20382;-83
2024/01/25 15:02:26;;;;;;;29.80;8.43;;;;;;;10.83;83.44;101969.72;6192919;23;20025;-83
2024/01/25 15:05:20;;;;;;;25.65;7.38;;;;;;;10.66;83.64;101954.56;6193704;23;20361;-83
2024/01/25 15:08:11;;;;;;;28.00;7.85;;;;;;;10.70;83.41;101958.59;6180821;23;20052;-83
2024/01/25 15:10:45;;;;;;;26.10;7.68;;;;;;;10.78;83.23;101962.25;6188511;23;20035;-82
2024/01/25 15:16:28;;;;;;;28.02;7.47;;;;;;;10.78;82.85;101951.78;6186706;23;20135;-83
2024/01/25 15:19:27;;;;;;;29.88;7.57;;;;;;;10.69;82.54;101941.22;6191541;23;20099;-83
2024/01/25 15:22:09;;;;;;;35.70;9.27;;;;;;;10.65;82.74;101938.00;6198735;23;20025;-83
2024/01/25 15:24:49;;;;;;;26.80;7.78;;;;;;;10.65;82.39;101932.78;6196468;23;20073;-81
2024/01/25 15:27:41;;;;;;;30.85;8.40;;;;;;;10.67;82.58;101943.97;6198178;23;20021;-82
2024/01/25 15:30:47;;;;;;;38.63;8.93;;;;;;;10.62;82.70;101930.41;6195046;23;20016;-82
2024/01/25 15:33:17;;;;;;;27.48;7.35;;;;;;;10.68;82.34;101937.78;6189464;23;20045;-82
2024/01/25 15:35:53;;;;;;;33.00;8.50;;;;;;;10.76;82.25;101926.69;6201593;23;20029;-81
2024/01/25 15:38:28;;;;;;;28.17;8.32;;;;;;;10.61;82.19;101913.03;6204359;23;20081;-84
2024/01/25 15:41:30;;;;;;;30.65;7.70;;;;;;;10.79;82.32;101931.66;6200009;23;20036;-82
2024/01/25 15:46:58;;;;;;;26.95;7.75;;;;;;;10.69;82.29;101915.03;6146598;23;20028;-84
2024/01/25 15:49:46;;;;;;;24.02;7.45;;;;;;;10.73;82.04;101912.06;6208373;23;20032;-84
2024/01/25 15:52:25;;;;;;;28.77;8.25;;;;;;;10.70;82.19;101912.28;6193587;23;20056;-81
2024/01/25 15:55:07;;;;;;;22.27;7.65;;;;;;;10.71;81.96;101911.34;6193398;23;20021;-84
2024/01/25 15:57:40;;;;;;;31.23;8.80;;;;;;;10.56;82.37;101909.97;6193893;23;20060;-84
2024/01/25 16:00:20;;;;;;;33.50;8.02;;;;;;;10.63;82.65;101922.44;6193625;23;20342;-83
2024/01/25 16:02:50;;;;;;;30.65;7.05;;;;;;;10.57;82.60;101919.47;6194434;23;20025;-82
2024/01/25 16:05:29;;;;;;;25.85;6.95;;;;;;;10.56;82.31;101907.34;6193163;23;20025;-83
2024/01/25 16:08:17;;;;;;;22.48;6.75;;;;;;;10.62;82.52;101912.91;6196653;23;20025;-82
2024/01/25 16:11:06;;;;;;;33.55;7.85;;;;;;;10.56;82.48;101904.72;6196892;23;20021;-83
2024/01/25 16:13:48;;;;;;;24.50;7.82;;;;;;;10.48;82.37;101905.34;6193649;23;20032;-83
2024/01/25 16:16:30;;;;;;;27.95;9.02;;;;;;;10.50;81.97;101915.69;6189508;23;20087;-83
2024/01/25 16:19:05;;;;;;;28.30;7.07;;;;;;;10.45;81.62;101902.16;6193040;23;20063;-82
2024/01/25 16:21:32;;;;;;;31.88;8.07;;;;;;;10.52;81.91;101913.78;6193435;23;20343;-82
2024/01/25 16:24:09;;;;;;;30.83;7.32;;;;;;;10.49;81.82;101908.78;6192530;23;20060;-83
2024/01/25 16:26:42;;;;;;;29.48;8.82;;;;;;;10.37;82.26;101905.41;6191847;23;20048;-83
2024/01/25 16:29:09;;;;;;;27.75;7.15;;;;;;;10.51;81.99;101910.34;6193919;23;20021;-83
2024/01/25 16:31:35;;;;;;;25.42;7.53;;;;;;;10.52;81.86;101903.31;6194847;23;20029;-82
2024/01/25 16:34:06;;;;;;;27.27;7.25;;;;;;;10.55;81.70;101896.03;6194994;23;20017;-83
2024/01/25 16:36:33;;;;;;;32.28;8.32;;;;;;;10.58;81.96;101897.59;6194906;23;20080;-82
2024/01/25 16:39:08;;;;;;;28.33;8.10;;;;;;;10.38;81.68;101874.84;6195428;23;20368;-82
2024/01/25 16:41:51;;;;;;;27.80;7.38;;;;;;;10.46;81.99;101888.94;6195260;23;20457;-83
2024/01/25 16:44:35;;;;;;;29.45;7.68;;;;;;;10.42;82.13;101881.47;6195445;23;20044;-83
2024/01/25 16:47:06;;;;;;;30.05;7.60;;;;;;;10.39;82.53;101886.97;6203659;23;20021;-83
2024/01/25 16:49:33;;;;;;;24.27;6.70;;;;;;;10.35;82.30;101881.16;6201083;23;20028;-84
2024/01/25 16:52:08;;;;;;;25.15;7.35;;;;;;;10.48;81.95;101887.03;6196345;23;20025;-84
2024/01/25 16:54:53;;;;;;;23.17;7.05;;;;;;;10.18;82.40;101887.69;6195543;23;20082;-83
2024/01/25 16:57:41;;;;;;;25.27;7.07;;;;;;;10.32;83.24;101896.25;6195055;23;20021;-83
2024/01/25 17:00:22;;;;;;;26.35;7.93;;;;;;;10.25;83.74;101896.75;6195484;23;20051;-83
2024/01/25 17:02:58;;;;;;;33.35;8.70;;;;;;;10.15;84.38;101892.34;6196117;23;20005;-83
2024/01/25 17:05:43;;;;;;;20.48;7.68;;;;;;;10.01;84.98;101895.22;6194753;23;20420;-82
2024/01/25 17:14:07;;;;;;;34.35;8.65;;;;;;;9.98;86.15;101893.69;6192757;23;20025;-83
2024/01/25 17:19:33;;;;;;;31.80;7.85;;;;;;;10.19;86.78;101885.91;6175269;23;20021;-84
2024/01/25 17:22:00;;;;;;;;;;;;;;;10.03;87.07;101875.00;6195575;23;20096;-83
2024/01/25 17:24:37;;;;;;;32.95;8.68;;;;;;;10.15;88.72;101885.31;6193424;23;19917;-83
2024/01/25 17:27:06;;;;;;;31.17;10.13;;;;;;;10.14;89.36;101888.91;6193797;23;20020;-82
2024/01/25 17:29:36;;;;;;;30.00;10.82;;;;;;;9.95;89.98;101896.53;6195705;23;20024;-82
2024/01/25 17:32:20;;;;;;;31.08;10.43;;;;;;;9.90;91.57;101899.53;6196211;23;20056;-83
2024/01/25 17:34:58;;;;;;;24.73;9.73;;;;;;;9.97;91.71;101918.16;6195138;23;20020;-84
2024/01/25 17:37:47;;;;;;;36.97;9.18;;;;;;;9.73;92.83;101905.25;6194583;23;20025;-82
2024/01/25 17:40:15;;;;;;;31.90;8.85;;;;;;;9.57;94.81;101923.06;6194470;23;20100;-81
2024/01/25 17:46:08;;;;;;;35.55;9.25;;;;;;;9.69;95.86;101914.28;6194410;23;20457;-79
2024/01/25 17:56:39;;;;;;;33.60;9.85;;;;;;;9.57;98.82;101920.44;5923787;24;20028;-81
2024/01/25 18:38:24;;;;;;;32.75;11.15;;;;;;;9.05;100.00;101947.06;6128043;23;20474;-84
2024/01/25 18:41:23;;;;;;;34.30;10.15;;;;;;;9.07;100.00;101940.78;6192967;23;20470;-84
2024/01/25 18:44:12;;;;;;;28.00;10.30;;;;;;;9.08;100.00;101939.00;6197872;23;20028;-85
2024/01/25 18:46:44;;;;;;;32.75;11.35;;;;;;;9.16;100.00;101941.88;6204696;23;20406;-85
2024/01/25 18:49:25;;;;;;;28.17;10.25;;;;;;;9.13;100.00;101950.75;6200426;23;20017;-86
2024/01/25 18:52:17;;;;;;;37.45;12.57;;;;;;;9.18;100.00;101946.03;6194423;23;20039;-87
2024/01/25 18:54:54;;;;;;;25.27;10.93;;;;;;;9.23;100.00;101932.63;6160789;23;20119;-85
2024/01/25 18:57:36;;;;;;;28.75;10.55;;;;;;;9.21;100.00;101930.13;6195497;23;20123;-86
2024/01/25 19:00:13;;;;;;;26.27;10.40;;;;;;;9.10;100.00;101921.44;6194562;23;20052;-86
2024/01/25 19:03:13;;;;;;;29.10;9.95;;;;;;;9.19;100.00;101928.59;6193152;23;20021;-86
2024/01/25 19:05:57;;;;;;;30.02;10.63;;;;;;;9.18;100.00;101929.53;6144307;23;20071;-85
2024/01/25 19:08:35;;;;;;;32.72;12.38;;;;;;;9.21;100.00;101918.84;6192703;23;20088;-88
2024/01/25 19:11:10;;;;;;;28.77;12.57;;;;;;;9.24;100.00;101923.84;6192996;23;20033;-84
2024/01/25 19:13:40;;;;;;;27.67;11.55;;;;;;;9.17;100.00;101920.88;6196545;23;20053;-84
2024/01/25 19:16:08;;;;;;;29.02;13.10;;;;;;;9.23;100.00;101919.56;6191501;23;20021;-85
2024/01/25 19:18:34;;;;;;;35.00;15.25;;;;;;;9.15;100.00;101898.41;6192913;23;20127;-85
2024/01/25 19:21:01;;;;;;;32.28;11.95;;;;;;;9.03;100.00;101904.56;6192598;23;20057;-85
2024/01/25 19:23:29;;;;;;;32.00;12.50;;;;;;;9.24;100.00;101913.41;6192988;23;20031;-85
2024/01/25 19:26:01;;;;;;;34.15;12.85;;;;;;;9.25;100.00;101920.28;6192795;23;20021;-85
2024/01/25 19:28:47;;;;;;;30.00;12.50;;;;;;;9.28;100.00;101909.63;6193269;23;20035;-85
2024/01/25 19:31:16;;;;;;;40.85;15.55;;;;;;;9.07;100.00;101912.06;6192791;23;20021;-85
2024/01/25 19:33:43;;;;;;;31.05;14.48;;;;;;;9.08;100.00;101911.09;6193555;23;20021;-85
2024/01/25 19:36:13;;;;;;;30.05;12.95;;;;;;;9.11;100.00;101913.50;6192407;23;20051;-85
2024/01/25 19:43:19;;;;;;;34.95;12.32;;;;;;;9.18;100.00;101901.63;6155720;23;20057;-85
2024/01/25 19:46:29;;;;;;;34.63;18.90;;;;;;;9.27;100.00;101913.19;6128156;23;20026;-85
2024/01/25 19:56:10;;;;;;;29.15;16.73;;;;;;;9.32;100.00;101916.28;6018998;23;20034;-84
2024/01/25 20:05:38;;;;;;;23.10;11.73;;;;;;;9.36;100.00;101894.19;6078403;23;20053;-85
2024/01/25 20:08:27;;;;;;;25.02;11.40;;;;;;;9.29;100.00;101890.38;6192230;23;20025;-86
2024/01/25 20:11:07;;;;;;;27.73;11.82;;;;;;;9.27;100.00;101887.06;6192303;23;20020;-86
2024/01/25 20:13:42;;;;;;;26.13;12.50;;;;;;;9.31;100.00;101888.47;6193459;23;20049;-85
2024/01/25 20:16:28;;;;;;;23.45;11.77;;;;;;;9.10;100.00;101877.88;6192130;23;20028;-85
2024/01/25 20:19:15;;;;;;;;;;;;;;;;;;;;;
2024/01/25 20:21:43;;;;;;;28.83;12.85;;;;;;;9.09;100.00;101867.56;6194105;23;20031;-85
2024/01/25 20:27:07;;;;;;;21.30;11.15;;;;;;;9.17;100.00;101871.25;6193295;23;20028;-86
2024/01/25 20:29:42;;;;;;;23.92;10.82;;;;;;;9.08;100.00;101871.94;6192925;23;20067;-85
2024/01/25 20:32:21;;;;;;;32.25;13.20;;;;;;;9.13;100.00;101869.81;6196554;23;20032;-86
2024/01/25 20:34:48;;;;;;;28.95;13.13;;;;;;;8.87;100.00;101863.97;6198022;23;20025;-84
2024/01/25 20:37:18;;;;;;;27.98;12.52;;;;;;;8.97;100.00;101878.00;6197336;23;20052;-85
2024/01/25 20:39:47;;;;;;;27.75;13.52;;;;;;;8.84;100.00;101882.47;6197583;23;20024;-85
2024/01/25 20:42:24;;;;;;;27.25;13.60;;;;;;;8.76;100.00;101881.38;6196502;23;20036;-85
2024/01/25 20:44:57;;;;;;;30.52;12.90;;;;;;;8.84;100.00;101890.28;6193764;23;20036;-85
2024/01/25 20:47:28;;;;;;;;;;;;;;;8.92;100.00;101893.16;6195023;23;20045;-83
2024/01/25 20:49:56;;;;;;;31.70;13.90;;;;;;;8.79;100.00;101875.91;6194369;23;19920;-85
2024/01/25 20:52:23;;;;;;;39.28;14.55;;;;;;;8.87;100.00;101886.63;6190650;23;20401;-86
2024/01/25 20:54:53;;;;;;;31.10;14.35;;;;;;;8.83;100.00;101886.03;6190288;23;20027;-84
2024/01/25 20:57:26;;;;;;;35.63;14.55;;;;;;;8.80;100.00;101894.06;6190568;23;20028;-83
2024/01/25 20:59:53;;;;;;;34.63;14.90;;;;;;;8.82;100.00;101888.75;6189340;23;20025;-82
2024/01/25 21:02:23;;;;;;;32.53;13.88;;;;;;;8.95;100.00;101877.28;6199570;23;20056;-84
2024/01/25 21:04:58;;;;;;;28.67;14.20;;;;;;;8.87;100.00;101877.00;6208003;23;20056;-85
2024/01/25 21:07:54;;;;;;;32.40;14.45;;;;;;;8.78;100.00;101880.31;6206109;23;20053;-84
2024/01/25 21:16:01;;;;;;;27.98;15.45;;;;;;;8.84;100.00;101879.84;6191195;23;20032;-82
2024/01/25 21:22:06;;;;;;;33.42;15.52;;;;;;;8.90;100.00;101884.63;6141653;23;20302;-83
2024/01/25 21:25:03;;;;;;;34.33;16.27;;;;;;;8.85;100.00;101868.47;6192280;23;20023;-83
2024/01/25 21:28:16;;;;;;;31.42;16.25;;;;;;;8.95;100.00;101866.84;6196460;23;20024;-81
2024/01/25 21:31:28;;;;;;;29.58;14.73;;;;;;;9.01;100.00;101856.84;6049426;23;20028;-81
2024/01/25 21:44:16;;;;;;;29.90;15.07;;;;;;;8.95;100.00;101858.16;6155018;23;20028;-83
2024/01/25 21:53:39;;;;;;;33.67;15.30;;;;;;;9.18;100.00;101865.06;6090132;23;20087;-83
2024/01/25 22:09:40;;;;;;;;;;;;;;;;;;;;;
2024/01/25 22:12:20;;;;;;;29.75;16.42;;;;;;;9.18;100.00;101846.78;6194309;23;20017;-83
2024/01/25 22:15:11;;;;;;;27.75;14.57;;;;;;;9.16;100.00;101837.41;6195705;23;20021;-85
2024/01/25 22:17:55;;;;;;;23.05;14.43;;;;;;;9.24;100.00;101848.09;6201628;23;20081;-82